Time,TemperatureF,DewpointF,PressureIn,WindDirection,WindDirectionDegrees,WindSpeedMPH,WindSpeedGustMPH,Humidity,HourlyPrecipIn,Conditions,Clouds,dailyrainin,SoftwareType,DateUTC
2013-02-04 00:04:00,44.6,33.0,30.17,West,275,0.0,-999.0,63,-99.99,,,0.00,weatherlink.com 1.10,2013-02-04 07:04:00,
2013-02-04 00:23:00,45.6,33.0,30.17,West,277,1.0,-999.0,62,-99.99,,,0.00,weatherlink.com 1.10,2013-02-04 07:23:00,
2013-02-04 00:35:00,46.2,33.0,30.16,West,278,0.0,-999.0,60,-99.99,,,0.00,weatherlink.com 1.10,2013-02-04 07:35:00,
2013-02-04 00:49:00,46.1,33.0,30.16,West,278,0.0,-999.0,60,-99.99,,,0.00,weatherlink.com 1.10,2013-02-04 07:49:00,
2013-02-04 01:04:00,45.2,32.0,30.16,West,278,0.0,-999.0,61,-99.99,,,0.00,weatherlink.com 1.10,2013-02-04 08:04:00,
2013-02-04 01:23:00,44.3,33.0,30.16,West,278,0.0,-999.0,64,-99.99,,,0.00,weatherlink.com 1.10,2013-02-04 08:23:00,
2013-02-04 01:34:00,42.6,32.0,30.16,West,278,0.0,-999.0,67,-99.99,,,0.00,weatherlink.com 1.10,2013-02-04 08:34:00,
2013-02-04 01:49:00,41.9,32.0,30.15,West,278,0.0,-999.0,68,-99.99,,,0.00,weatherlink.com 1.10,2013-02-04 08:49:00,
2013-02-04 02:04:00,41.6,32.0,30.16,West,278,0.0,-999.0,69,-99.99,,,0.00,weatherlink.com 1.10,2013-02-04 09:04:00,
2013-02-04 02:23:00,41.2,32.0,30.16,West,278,0.0,-999.0,70,-99.99,,,0.00,weatherlink.com 1.10,2013-02-04 09:23:00,
2013-02-04 02:35:00,41.1,32.0,30.15,West,278,0.0,-999.0,70,-99.99,,,0.00,weatherlink.com 1.10,2013-02-04 09:35:00,
2013-02-04 02:49:00,40.9,32.0,30.16,West,278,0.0,-999.0,70,-99.99,,,0.00,weatherlink.com 1.10,2013-02-04 09:49:00,
2013-02-04 03:05:00,40.2,32.0,30.16,West,278,0.0,-999.0,72,-99.99,,,0.00,weatherlink.com 1.10,2013-02-04 10:05:00,
2013-02-04 03:23:00,39.8,31.0,30.16,West,278,0.0,-999.0,72,-99.99,,,0.00,weatherlink.com 1.10,2013-02-04 10:23:00,
2013-02-04 03:34:00,39.1,31.0,30.16,West,278,0.0,-999.0,74,-99.99,,,0.00,weatherlink.com 1.10,2013-02-04 10:34:00,
2013-02-04 03:49:00,39.1,31.0,30.16,West,278,0.0,-999.0,74,-99.99,,,0.00,weatherlink.com 1.10,2013-02-04 10:49:00,
2013-02-04 04:04:00,39.5,32.0,30.16,West,278,0.0,-999.0,74,-99.99,,,0.00,weatherlink.com 1.10,2013-02-04 11:04:00,
2013-02-04 04:23:00,40.4,32.0,30.16,West,278,0.0,-999.0,72,-99.99,,,0.00,weatherlink.com 1.10,2013-02-04 11:23:00,
2013-02-04 04:34:00,40.3,31.0,30.15,West,278,0.0,-999.0,70,-99.99,,,0.00,weatherlink.com 1.10,2013-02-04 11:34:00,
2013-02-04 04:49:00,39.5,31.0,30.15,West,278,0.0,-999.0,72,-99.99,,,0.00,weatherlink.com 1.10,2013-02-04 11:49:00,
2013-02-04 05:04:00,38.7,31.0,30.14,West,278,0.0,-999.0,73,-99.99,,,0.00,weatherlink.com 1.10,2013-02-04 12:04:00,
2013-02-04 05:23:00,38.5,31.0,30.14,West,278,0.0,-999.0,73,-99.99,,,0.00,weatherlink.com 1.10,2013-02-04 12:23:00,
2013-02-04 05:34:00,38.0,30.0,30.15,West,278,0.0,-999.0,74,-99.99,,,0.00,weatherlink.com 1.10,2013-02-04 12:34:00,
2013-02-04 05:50:00,37.9,31.0,30.15,West,278,0.0,-999.0,75,-99.99,,,0.00,weatherlink.com 1.10,2013-02-04 12:50:00,
2013-02-04 06:05:00,38.3,31.0,30.15,West,278,0.0,-999.0,75,-99.99,,,0.00,weatherlink.com 1.10,2013-02-04 13:05:00,
2013-02-04 06:24:00,38.0,30.0,30.15,West,278,0.0,-999.0,74,-99.99,,,0.00,weatherlink.com 1.10,2013-02-04 13:24:00,
2013-02-04 06:35:00,38.1,31.0,30.15,West,278,0.0,-999.0,74,-99.99,,,0.00,weatherlink.com 1.10,2013-02-04 13:35:00,
2013-02-04 06:49:00,38.2,30.0,30.16,West,278,0.0,-999.0,73,-99.99,,,0.00,weatherlink.com 1.10,2013-02-04 13:49:00,
2013-02-04 07:04:00,38.7,31.0,30.16,West,278,0.0,-999.0,74,-99.99,,,0.00,weatherlink.com 1.10,2013-02-04 14:04:00,
2013-02-04 07:24:00,38.9,31.0,30.17,West,278,0.0,-999.0,74,-99.99,,,0.00,weatherlink.com 1.10,2013-02-04 14:24:00,
2013-02-04 07:35:00,38.5,31.0,30.17,West,278,0.0,-999.0,74,-99.99,,,0.00,weatherlink.com 1.10,2013-02-04 14:35:00,
2013-02-04 07:49:00,38.8,32.0,30.18,West,278,0.0,-999.0,77,-99.99,,,0.00,weatherlink.com 1.10,2013-02-04 14:49:00,
2013-02-04 08:05:00,40.2,33.0,30.18,West,278,0.0,-999.0,76,-99.99,,,0.00,weatherlink.com 1.10,2013-02-04 15:05:00,
2013-02-04 08:23:00,40.9,34.0,30.18,West,278,0.0,-999.0,76,-99.99,,,0.00,weatherlink.com 1.10,2013-02-04 15:23:00,
2013-02-04 08:34:00,42.9,35.0,30.19,West,278,0.0,-999.0,73,-99.99,,,0.00,weatherlink.com 1.10,2013-02-04 15:34:00,
2013-02-04 08:50:00,44.3,35.0,30.19,West,278,0.0,-999.0,71,-99.99,,,0.00,weatherlink.com 1.10,2013-02-04 15:50:00,
2013-02-04 09:05:00,45.8,35.0,30.19,NW,323,0.0,-999.0,65,-99.99,,,0.00,weatherlink.com 1.10,2013-02-04 16:05:00,
2013-02-04 09:24:00,47.4,35.0,30.19,NW,323,0.0,-999.0,63,-99.99,,,0.00,weatherlink.com 1.10,2013-02-04 16:24:00,
2013-02-04 09:35:00,50.6,34.0,30.20,NW,323,1.0,-999.0,53,-99.99,,,0.00,weatherlink.com 1.10,2013-02-04 16:35:00,
2013-02-04 09:50:00,51.7,33.0,30.21,SE,138,5.0,-999.0,50,-99.99,,,0.00,weatherlink.com 1.10,2013-02-04 16:50:00,
2013-02-04 10:05:00,50.9,34.0,30.21,SE,139,1.0,-999.0,52,-99.99,,,0.00,weatherlink.com 1.10,2013-02-04 17:05:00,
2013-02-04 10:24:00,52.1,33.0,30.21,SSE,148,1.0,-999.0,49,-99.99,,,0.00,weatherlink.com 1.10,2013-02-04 17:24:00,
2013-02-04 10:35:00,52.7,33.0,30.21,SE,136,0.0,-999.0,48,-99.99,,,0.00,weatherlink.com 1.10,2013-02-04 17:35:00,
2013-02-04 10:50:00,53.2,33.0,30.20,SE,128,1.0,-999.0,47,-99.99,,,0.00,weatherlink.com 1.10,2013-02-04 17:50:00,
2013-02-04 11:05:00,53.2,34.0,30.20,SE,140,1.0,-999.0,48,-99.99,,,0.00,weatherlink.com 1.10,2013-02-04 18:05:00,
2013-02-04 11:20:00,53.1,35.0,30.20,SE,134,1.0,-999.0,50,-99.99,,,0.00,weatherlink.com 1.10,2013-02-04 18:20:00,
2013-02-04 11:35:00,53.7,35.0,30.19,ESE,123,0.0,-999.0,49,-99.99,,,0.00,weatherlink.com 1.10,2013-02-04 18:35:00,
2013-02-04 11:50:00,55.5,35.0,30.18,ENE,71,0.0,-999.0,46,-99.99,,,0.00,weatherlink.com 1.10,2013-02-04 18:50:00,
2013-02-04 12:05:00,57.2,34.0,30.18,SE,146,7.0,-999.0,42,-99.99,,,0.00,weatherlink.com 1.10,2013-02-04 19:05:00,
2013-02-04 12:24:00,56.6,34.0,30.17,SSE,164,11.0,-999.0,42,-99.99,,,0.00,weatherlink.com 1.10,2013-02-04 19:24:00,
2013-02-04 12:34:00,56.5,35.0,30.16,ESE,123,4.0,-999.0,44,-99.99,,,0.00,weatherlink.com 1.10,2013-02-04 19:34:00,
2013-02-04 12:49:00,56.4,35.0,30.15,SE,130,5.0,-999.0,45,-99.99,,,0.00,weatherlink.com 1.10,2013-02-04 19:49:00,
2013-02-04 13:04:00,57.6,36.0,30.15,SSE,165,1.0,-999.0,44,-99.99,,,0.00,weatherlink.com 1.10,2013-02-04 20:04:00,
2013-02-04 13:24:00,57.9,35.0,30.14,SE,126,4.0,-999.0,43,-99.99,,,0.00,weatherlink.com 1.10,2013-02-04 20:24:00,
2013-02-04 13:35:00,57.6,34.0,30.14,WSW,245,0.0,-999.0,42,-99.99,,,0.00,weatherlink.com 1.10,2013-02-04 20:35:00,
2013-02-04 13:50:00,57.6,35.0,30.13,ESE,112,0.0,-999.0,43,-99.99,,,0.00,weatherlink.com 1.10,2013-02-04 20:50:00,
2013-02-04 14:05:00,58.4,35.0,30.13,East,98,2.0,-999.0,42,-99.99,,,0.00,weatherlink.com 1.10,2013-02-04 21:05:00,
2013-02-04 14:25:00,58.9,35.0,30.13,SE,144,2.0,-999.0,41,-99.99,,,0.00,weatherlink.com 1.10,2013-02-04 21:25:00,
2013-02-04 14:35:00,59.2,36.0,30.13,West,259,0.0,-999.0,42,-99.99,,,0.00,weatherlink.com 1.10,2013-02-04 21:35:00,
2013-02-04 14:51:00,59.8,36.0,30.13,West,269,0.0,-999.0,41,-99.99,,,0.00,weatherlink.com 1.10,2013-02-04 21:51:00,
2013-02-04 15:05:00,59.9,35.0,30.12,West,279,0.0,-999.0,40,-99.99,,,0.00,weatherlink.com 1.10,2013-02-04 22:05:00,
2013-02-04 15:25:00,60.2,36.0,30.13,WSW,248,1.0,-999.0,40,-99.99,,,0.00,weatherlink.com 1.10,2013-02-04 22:25:00,
2013-02-04 15:36:00,59.1,35.0,30.12,WNW,288,0.0,-999.0,40,-99.99,,,0.00,weatherlink.com 1.10,2013-02-04 22:36:00,
2013-02-04 15:50:00,58.0,35.0,30.12,West,271,0.0,-999.0,42,-99.99,,,0.00,weatherlink.com 1.10,2013-02-04 22:50:00,
2013-02-04 16:06:00,57.7,35.0,30.12,WNW,298,0.0,-999.0,42,-99.99,,,0.00,weatherlink.com 1.10,2013-02-04 23:06:00,
2013-02-04 16:24:00,57.6,34.0,30.12,ESE,119,1.0,-999.0,42,-99.99,,,0.00,weatherlink.com 1.10,2013-02-04 23:24:00,
2013-02-04 16:36:00,56.9,34.0,30.12,SSE,154,1.0,-999.0,43,-99.99,,,0.00,weatherlink.com 1.10,2013-02-04 23:36:00,
2013-02-04 16:51:00,56.3,35.0,30.12,SSE,154,0.0,-999.0,45,-99.99,,,0.00,weatherlink.com 1.10,2013-02-04 23:51:00,
2013-02-04 17:07:00,55.8,35.0,30.11,SSE,154,0.0,-999.0,46,-99.99,,,0.00,weatherlink.com 1.10,2013-02-05 00:07:00,
2013-02-04 17:24:00,55.7,35.0,30.11,SSE,154,0.0,-999.0,46,-99.99,,,0.00,weatherlink.com 1.10,2013-02-05 00:24:00,
2013-02-04 17:35:00,55.0,36.0,30.12,SSW,198,0.0,-999.0,49,-99.99,,,0.00,weatherlink.com 1.10,2013-02-05 00:35:00,
2013-02-04 17:51:00,54.4,36.0,30.12,West,266,0.0,-999.0,50,-99.99,,,0.00,weatherlink.com 1.10,2013-02-05 00:51:00,
2013-02-04 18:05:00,53.4,36.0,30.12,West,266,0.0,-999.0,52,-99.99,,,0.00,weatherlink.com 1.10,2013-02-05 01:05:00,
2013-02-04 18:25:00,52.0,36.0,30.12,West,266,0.0,-999.0,54,-99.99,,,0.00,weatherlink.com 1.10,2013-02-05 01:25:00,
2013-02-04 18:35:00,49.7,35.0,30.13,West,266,0.0,-999.0,58,-99.99,,,0.00,weatherlink.com 1.10,2013-02-05 01:35:00,
2013-02-04 18:51:00,48.7,35.0,30.13,West,266,0.0,-999.0,60,-99.99,,,0.00,weatherlink.com 1.10,2013-02-05 01:51:00,
2013-02-04 19:05:00,49.1,36.0,30.13,West,267,1.0,-999.0,60,-99.99,,,0.00,weatherlink.com 1.10,2013-02-05 02:05:00,
2013-02-04 19:25:00,49.6,35.0,30.13,West,267,0.0,-999.0,58,-99.99,,,0.00,weatherlink.com 1.10,2013-02-05 02:25:00,
2013-02-04 19:35:00,49.3,35.0,30.14,West,267,0.0,-999.0,58,-99.99,,,0.00,weatherlink.com 1.10,2013-02-05 02:35:00,
2013-02-04 19:50:00,48.3,34.0,30.14,West,267,0.0,-999.0,58,-99.99,,,0.00,weatherlink.com 1.10,2013-02-05 02:50:00,
2013-02-04 20:05:00,46.7,34.0,30.14,West,267,0.0,-999.0,61,-99.99,,,0.00,weatherlink.com 1.10,2013-02-05 03:05:00,
2013-02-04 20:24:00,45.6,34.0,30.15,West,267,1.0,-999.0,63,-99.99,,,0.00,weatherlink.com 1.10,2013-02-05 03:24:00,
2013-02-04 20:35:00,44.3,34.0,30.15,West,267,0.0,-999.0,66,-99.99,,,0.00,weatherlink.com 1.10,2013-02-05 03:35:00,
2013-02-04 20:50:00,44.6,34.0,30.15,West,267,0.0,-999.0,67,-99.99,,,0.00,weatherlink.com 1.10,2013-02-05 03:50:00,
2013-02-04 21:06:00,44.5,34.0,30.16,West,267,0.0,-999.0,67,-99.99,,,0.00,weatherlink.com 1.10,2013-02-05 04:06:00,
2013-02-04 21:24:00,44.6,34.0,30.16,West,267,0.0,-999.0,67,-99.99,,,0.00,weatherlink.com 1.10,2013-02-05 04:24:00,
2013-02-04 21:35:00,45.3,34.0,30.16,West,267,0.0,-999.0,66,-99.99,,,0.00,weatherlink.com 1.10,2013-02-05 04:35:00,
2013-02-04 21:50:00,45.1,35.0,30.16,West,267,0.0,-999.0,67,-99.99,,,0.00,weatherlink.com 1.10,2013-02-05 04:50:00,
2013-02-04 22:06:00,45.2,34.0,30.17,West,267,0.0,-999.0,66,-99.99,,,0.00,weatherlink.com 1.10,2013-02-05 05:06:00,
2013-02-04 22:25:00,44.9,34.0,30.17,West,267,0.0,-999.0,66,-99.99,,,0.00,weatherlink.com 1.10,2013-02-05 05:25:00,
2013-02-04 22:35:00,44.1,34.0,30.16,West,267,0.0,-999.0,68,-99.99,,,0.00,weatherlink.com 1.10,2013-02-05 05:35:00,
2013-02-04 22:51:00,43.7,34.0,30.17,West,267,0.0,-999.0,68,-99.99,,,0.00,weatherlink.com 1.10,2013-02-05 05:51:00,
2013-02-04 23:05:00,43.8,34.0,30.16,West,267,1.0,-999.0,68,-99.99,,,0.00,weatherlink.com 1.10,2013-02-05 06:05:00,
2013-02-04 23:24:00,44.0,34.0,30.16,West,267,0.0,-999.0,68,-99.99,,,0.00,weatherlink.com 1.10,2013-02-05 06:24:00,
2013-02-04 23:35:00,44.2,34.0,30.17,West,267,0.0,-999.0,67,-99.99,,,0.00,weatherlink.com 1.10,2013-02-05 06:35:00,
2013-02-04 23:51:00,44.1,34.0,30.16,West,267,0.0,-999.0,67,-99.99,,,0.00,weatherlink.com 1.10,2013-02-05 06:51:00,